This is the latest recevied weather packets stored in our database for station/object EA1PVC-10. If no packets are shown the sender has not sent any weather packets the latest 10 day(s).
| Time | Temp. | Humidity | Pressure | Rain* | Wind** | Luminosity | Snow |
|---|---|---|---|---|---|---|---|
| 1777615831 | 10.56° C | 84% | 925 hPa | - | - | - | - |
| 1777614931 | 10° C | 84% | 925 hPa | - | - | - | - |
| 1777614031 | 10° C | 83% | 924.9 hPa | - | - | - | - |
| 1777613134 | 5° C | 83% | 917.7 hPa | - | - | - | - |
| 1777612219 | 10° C | 82% | 924.7 hPa | - | - | - | - |
| 1777611319 | 10.56° C | 81% | 924.7 hPa | - | - | - | - |
| 1777610419 | 10.56° C | 80% | 924.8 hPa | - | - | - | - |
| 1777609519 | 10.56° C | 80% | 924.8 hPa | - | - | - | - |
| 1777608619 | 10.56° C | 80% | 924.8 hPa | - | - | - | - |
| 1777607719 | 11.11° C | 81% | 925 hPa | - | - | - | - |
| 1777606819 | 11.11° C | 82% | 924.9 hPa | - | - | - | - |
| 1777605919 | 11.11° C | 82% | 924.8 hPa | - | - | - | - |
| 1777605019 | 11.11° C | 81% | 924.7 hPa | - | - | - | - |
| 1777604119 | 11.11° C | 79% | 924.6 hPa | - | - | - | - |
| 1777603219 | 11.67° C | 79% | 924.7 hPa | - | - | - | - |
| 1777602319 | 6.67° C | 81% | 917.8 hPa | - | - | - | - |
| 1777601407 | 11.67° C | 81% | 926.1 hPa | - | - | - | - |
| 1777600507 | 12.22° C | 79% | 924.7 hPa | - | - | - | - |
| 1777599607 | 12.22° C | 79% | 924.7 hPa | - | - | - | - |
| 1777598707 | 12.78° C | 74% | 924.8 hPa | - | - | - | - |
| 1777597807 | 12.78° C | 75% | 924.9 hPa | - | - | - | - |
| 1777596907 | 13.33° C | 71% | 925.1 hPa | - | - | - | - |
| 1777595107 | 13.33° C | 74% | 925.1 hPa | - | - | - | - |
| 1777594207 | 13.33° C | 73% | 925.2 hPa | - | - | - | - |
| 1777593309 | 13.89° C | 72% | 925.2 hPa | - | - | - | - |
* Rain since midnight (hover to see other rain measurements)
** Current wind speed in m/s (hover to see current wind gust speed)